Letort, Pennsylvania
Current Conditions -  °F | °C
As of 8:53 AM on Wednesday 28 Jan 2015 (Local Time) from KLNS Reporting Station
Clear Clear  
Wind Chill:   Ceiling: Unl
Heat Index: 19°   Visibility: 10mi
Dew Point:   Wind: 20mph
Humidity: 47%   Direction: 300°WNW
Pressure: 30.14"   Gusts: NA
Location:  39.9869°N, 76.4358°W
Report Text: KLNS 281353Z 30017KT 10SM CLR M07/M17 A3014 RMK AO2 SLP211 T10721167
Loading
Personal Weather Stations






























Interactive Weather Map New forecast layout! Learn more

10-Day Weather Forecast

Advertisements
Track Severe Weather on mobile